createdAt,value
2022-12-16T00:00:09.882Z,43.13
2022-12-16T00:02:36.650Z,40.27
2022-12-16T00:05:04.266Z,39.17
2022-12-16T00:07:30.920Z,41.00
2022-12-16T00:09:57.565Z,40.10
2022-12-16T00:12:24.259Z,38.70
2022-12-16T00:14:51.178Z,39.37
2022-12-16T00:17:18.619Z,35.20
2022-12-16T00:19:45.254Z,37.63
2022-12-16T00:22:11.955Z,36.63
2022-12-16T00:24:38.603Z,37.20
2022-12-16T00:27:05.271Z,38.13
2022-12-16T00:29:31.971Z,34.37
2022-12-16T00:31:58.664Z,32.67
2022-12-16T00:34:25.400Z,34.00
2022-12-16T00:36:52.167Z,32.17
2022-12-16T00:39:18.895Z,31.37
2022-12-16T00:41:47.454Z,30.20
2022-12-16T00:44:14.125Z,31.73
2022-12-16T00:46:40.767Z,27.83
2022-12-16T00:49:07.476Z,28.37
2022-12-16T00:51:34.061Z,29.30
2022-12-16T00:54:00.727Z,32.73
2022-12-16T00:56:27.424Z,33.50
2022-12-16T00:58:54.123Z,33.73
2022-12-16T01:01:22.057Z,28.13
2022-12-16T01:03:48.858Z,27.70
2022-12-16T01:06:17.929Z,30.57
2022-12-16T01:08:50.501Z,29.43
2022-12-16T01:11:19.188Z,28.83
2022-12-16T01:13:46.704Z,25.87
2022-12-16T01:16:13.525Z,30.47
2022-12-16T01:18:40.201Z,30.13
2022-12-16T01:21:08.492Z,28.77
2022-12-16T01:23:35.872Z,27.20
2022-12-16T01:26:03.182Z,27.57
2022-12-16T01:28:30.330Z,27.53
2022-12-16T01:31:01.742Z,30.27
2022-12-16T01:33:33.339Z,29.93
2022-12-16T01:36:06.317Z,27.43
2022-12-16T01:38:33.752Z,28.57
2022-12-16T01:41:01.188Z,32.17
2022-12-16T01:43:35.229Z,37.67
2022-12-16T01:46:14.408Z,27.20
2022-12-16T01:49:00.919Z,25.90
2022-12-16T01:51:36.285Z,29.23
2022-12-16T01:54:10.619Z,25.90
2022-12-16T01:56:41.553Z,25.40
2022-12-16T01:59:09.051Z,27.80
2022-12-16T02:01:35.988Z,26.27
2022-12-16T02:04:04.273Z,27.37
2022-12-16T02:06:31.906Z,24.83
2022-12-16T02:09:02.479Z,28.23
2022-12-16T02:11:38.526Z,26.57
2022-12-16T02:14:29.502Z,26.70
2022-12-16T02:17:19.505Z,25.83
2022-12-16T02:20:23.995Z,25.70
2022-12-16T02:23:32.206Z,27.70
2022-12-16T02:26:07.884Z,28.70
2022-12-16T02:29:00.807Z,26.50
2022-12-16T02:31:36.561Z,29.40
2022-12-16T02:34:20.883Z,29.77
2022-12-16T02:37:06.787Z,25.27
2022-12-16T02:39:37.075Z,28.73
2022-12-16T02:42:16.508Z,25.77
2022-12-16T02:45:00.405Z,24.27
2022-12-16T02:47:27.482Z,24.97
2022-12-16T02:49:55.221Z,26.23
2022-12-16T02:52:25.630Z,26.63
2022-12-16T02:54:58.163Z,26.60
2022-12-16T02:57:59.023Z,29.30
2022-12-16T03:00:28.640Z,26.50
2022-12-16T03:03:08.646Z,27.93
2022-12-16T03:05:43.299Z,27.30
2022-12-16T03:08:14.631Z,26.57
2022-12-16T03:11:03.520Z,25.57
2022-12-16T03:13:35.690Z,27.13
2022-12-16T03:16:05.230Z,27.30
2022-12-16T03:18:33.646Z,26.33
2022-12-16T03:21:05.182Z,26.13
2022-12-16T03:23:40.686Z,27.10
2022-12-16T03:26:14.301Z,25.47
2022-12-16T03:28:56.283Z,25.77
2022-12-16T03:31:47.458Z,29.80
2022-12-16T03:34:37.756Z,28.17
2022-12-16T03:37:08.066Z,28.77
2022-12-16T03:39:39.631Z,30.47
2022-12-16T03:42:07.038Z,26.73
2022-12-16T03:44:35.970Z,24.40
2022-12-16T03:47:02.836Z,28.33
2022-12-16T03:49:29.588Z,29.07
2022-12-16T03:51:56.507Z,26.60
2022-12-16T03:54:24.190Z,27.33
2022-12-16T03:56:50.792Z,25.87
2022-12-16T03:59:17.517Z,26.33
2022-12-16T04:01:44.411Z,27.60
2022-12-16T04:04:11.242Z,28.53
2022-12-16T04:06:38.080Z,26.30
2022-12-16T04:09:05.276Z,28.00
2022-12-16T04:11:50.651Z,29.33
2022-12-16T04:14:36.216Z,28.13
2022-12-16T04:17:21.848Z,28.70
2022-12-16T04:20:08.296Z,26.03
2022-12-16T04:23:01.776Z,28.93
2022-12-16T04:25:35.700Z,27.17
2022-12-16T04:28:02.827Z,25.63
2022-12-16T04:30:34.621Z,30.47
2022-12-16T04:33:24.420Z,30.80
2022-12-16T04:36:09.968Z,28.20
2022-12-16T04:38:55.484Z,29.93
2022-12-16T04:41:40.869Z,26.43
2022-12-16T04:44:26.407Z,30.13
2022-12-16T04:47:12.013Z,26.57
2022-12-16T04:49:57.559Z,27.47
2022-12-16T04:52:43.399Z,28.17
2022-12-16T04:55:29.205Z,29.40
2022-12-16T04:58:17.451Z,28.27
2022-12-16T05:01:03.531Z,31.07
2022-12-16T05:03:49.029Z,27.93
2022-12-16T05:06:34.940Z,29.33
2022-12-16T05:09:20.828Z,28.43
2022-12-16T05:12:06.247Z,26.17
2022-12-16T05:14:51.701Z,28.43
2022-12-16T05:17:37.654Z,28.13
2022-12-16T05:20:23.561Z,26.80
2022-12-16T05:23:08.929Z,33.17
2022-12-16T05:25:54.186Z,30.23
2022-12-16T05:28:39.954Z,30.97
2022-12-16T05:31:25.645Z,31.80
2022-12-16T05:34:11.239Z,32.07
2022-12-16T05:36:56.617Z,32.50
2022-12-16T05:39:42.131Z,28.00
2022-12-16T05:42:27.389Z,32.23
2022-12-16T05:45:12.684Z,32.27
2022-12-16T05:47:59.157Z,31.03
2022-12-16T05:50:44.219Z,32.03
2022-12-16T05:53:29.917Z,29.33
2022-12-16T05:56:15.677Z,32.40
2022-12-16T05:59:00.900Z,28.90
2022-12-16T06:01:46.521Z,30.80
2022-12-16T06:04:31.689Z,31.17
2022-12-16T06:07:17.221Z,28.07
2022-12-16T06:10:02.502Z,29.20
2022-12-16T06:12:47.786Z,31.13
2022-12-16T06:15:33.227Z,28.77
2022-12-16T06:18:18.507Z,35.03
2022-12-16T06:21:03.609Z,31.67
2022-12-16T06:23:49.229Z,34.30
2022-12-16T06:26:35.779Z,31.67
2022-12-16T06:29:21.292Z,28.83
2022-12-16T06:32:06.693Z,27.20
2022-12-16T06:34:52.225Z,27.77
2022-12-16T06:37:37.577Z,30.70
2022-12-16T06:40:23.422Z,35.23
2022-12-16T06:43:08.639Z,31.97
2022-12-16T06:45:54.201Z,29.60
2022-12-16T06:48:39.791Z,29.80
2022-12-16T06:51:25.220Z,33.27
2022-12-16T06:54:10.772Z,27.90
2022-12-16T06:56:56.307Z,28.33
2022-12-16T06:59:41.613Z,29.40
2022-12-16T07:02:29.793Z,30.70
2022-12-16T07:05:17.442Z,27.80
2022-12-16T07:08:07.334Z,30.40
2022-12-16T07:10:52.806Z,31.93
2022-12-16T07:13:40.940Z,30.83
2022-12-16T07:16:26.302Z,34.87
2022-12-16T07:19:11.906Z,34.50
2022-12-16T07:21:57.323Z,31.23
2022-12-16T07:24:42.748Z,30.23
2022-12-16T07:27:28.125Z,30.60
2022-12-16T07:30:20.222Z,29.43
2022-12-16T07:33:09.073Z,33.40
2022-12-16T07:35:54.318Z,32.90
2022-12-16T07:38:39.642Z,35.17
2022-12-16T07:41:25.004Z,31.63
2022-12-16T07:44:10.200Z,30.37
2022-12-16T07:46:55.571Z,34.47
2022-12-16T07:49:55.451Z,31.07
2022-12-16T07:52:41.120Z,29.70
2022-12-16T07:55:26.712Z,28.00
2022-12-16T07:58:12.136Z,29.93
2022-12-16T08:00:57.683Z,31.47
2022-12-16T08:03:42.933Z,30.70
2022-12-16T08:06:28.432Z,31.17
2022-12-16T08:09:15.346Z,32.03
2022-12-16T08:12:00.377Z,28.23
2022-12-16T08:14:45.822Z,30.07
2022-12-16T08:17:31.238Z,30.97
2022-12-16T08:20:16.530Z,32.40
2022-12-16T08:23:02.096Z,30.87
2022-12-16T08:25:47.622Z,32.30
2022-12-16T08:28:43.603Z,30.33
2022-12-16T08:31:29.293Z,27.30
2022-12-16T08:34:14.462Z,27.80
2022-12-16T08:36:59.904Z,30.53
2022-12-16T08:39:45.031Z,32.87
2022-12-16T08:42:31.938Z,36.23
2022-12-16T08:45:17.512Z,29.73
2022-12-16T08:48:02.681Z,36.97
2022-12-16T08:50:48.126Z,37.50
2022-12-16T08:53:33.698Z,42.50
2022-12-16T08:56:19.314Z,48.67
2022-12-16T08:59:04.678Z,50.93
2022-12-16T09:01:50.177Z,46.90
2022-12-16T09:04:36.619Z,50.97
2022-12-16T09:07:21.852Z,49.47
2022-12-16T09:10:07.163Z,52.60
2022-12-16T09:12:52.643Z,54.40
2022-12-16T09:15:37.937Z,58.27
2022-12-16T09:18:23.542Z,55.47
2022-12-16T09:21:10.537Z,59.77
2022-12-16T09:23:56.601Z,55.50
2022-12-16T09:26:42.419Z,60.20
2022-12-16T09:29:27.824Z,59.97
2022-12-16T09:32:13.198Z,61.63
2022-12-16T09:34:58.435Z,63.47
2022-12-16T09:37:43.857Z,57.00
2022-12-16T09:40:35.973Z,55.50
2022-12-16T09:43:46.707Z,59.90
2022-12-16T09:46:50.584Z,46.70
2022-12-16T09:50:05.093Z,54.80
2022-12-16T09:52:58.885Z,40.17
2022-12-16T09:55:57.994Z,39.33
2022-12-16T09:58:48.010Z,31.53
2022-12-16T10:01:34.880Z,28.70
2022-12-16T10:04:20.646Z,33.57
2022-12-16T10:07:09.759Z,33.03
2022-12-16T10:10:17.822Z,34.53
2022-12-16T10:13:26.341Z,31.40
2022-12-16T10:16:34.503Z,33.87
2022-12-16T10:19:38.465Z,30.77
2022-12-16T10:22:38.070Z,37.83
2022-12-16T10:25:50.001Z,35.67
2022-12-16T10:28:36.006Z,34.23
2022-12-16T10:31:39.962Z,31.67
2022-12-16T10:34:33.096Z,27.17
2022-12-16T10:37:21.242Z,32.73
2022-12-16T10:40:18.709Z,30.97
2022-12-16T10:43:22.188Z,25.37
2022-12-16T10:46:11.118Z,40.87
2022-12-16T10:48:57.251Z,30.63
2022-12-16T10:51:46.052Z,28.70
2022-12-16T10:54:46.607Z,26.02
2022-12-16T10:57:58.163Z,30.38
2022-12-16T11:01:13.804Z,32.40
2022-12-16T11:03:59.860Z,23.52
2022-12-16T11:06:46.801Z,22.00
2022-12-16T11:09:52.522Z,21.83
2022-12-16T11:12:49.249Z,20.30
2022-12-16T11:15:49.356Z,25.33
2022-12-16T11:18:40.100Z,26.50
2022-12-16T11:21:31.880Z,23.48
2022-12-16T11:24:37.185Z,25.50
2022-12-16T11:27:32.561Z,23.17
2022-12-16T11:31:04.705Z,25.30
2022-12-16T11:33:50.374Z,23.60
2022-12-16T11:36:40.999Z,25.17
2022-12-16T11:39:32.317Z,27.03
2022-12-16T11:42:19.347Z,28.93
2022-12-16T11:45:15.855Z,28.07
2022-12-16T11:48:31.629Z,24.67
2022-12-16T11:51:18.364Z,23.80
2022-12-16T11:54:27.398Z,25.60
2022-12-16T11:57:14.627Z,24.97
2022-12-16T12:00:18.040Z,24.27
2022-12-16T12:03:06.717Z,23.55
2022-12-16T12:06:01.779Z,27.25
2022-12-16T12:08:53.126Z,26.00
2022-12-16T12:11:45.425Z,24.15
2022-12-16T12:15:16.995Z,24.35
2022-12-16T12:18:02.503Z,24.85
2022-12-16T12:21:00.097Z,24.00
2022-12-16T12:23:56.947Z,24.95
2022-12-16T12:26:51.263Z,24.63
2022-12-16T12:30:14.563Z,24.02
2022-12-16T12:33:32.610Z,25.70
2022-12-16T12:36:50.657Z,23.90
2022-12-16T12:40:05.880Z,23.25
2022-12-16T12:43:13.637Z,22.30
2022-12-16T12:46:25.350Z,21.73
2022-12-16T12:49:51.629Z,20.35
2022-12-16T12:53:18.784Z,22.23
2022-12-16T12:56:23.838Z,21.15
2022-12-16T12:59:12.260Z,20.92
2022-12-16T13:02:02.143Z,17.77
2022-12-16T13:04:48.941Z,18.08
2022-12-16T13:07:34.587Z,20.30
2022-12-16T13:10:31.898Z,19.83
2022-12-16T13:13:43.216Z,17.60
2022-12-16T13:16:31.778Z,18.02
2022-12-16T13:19:49.760Z,18.33
2022-12-16T13:22:51.813Z,17.58
2022-12-16T13:26:03.589Z,18.13
2022-12-16T13:28:57.990Z,18.70
2022-12-16T13:31:44.912Z,20.92
2022-12-16T13:34:46.073Z,20.30
2022-12-16T13:37:45.441Z,23.73
2022-12-16T13:40:39.344Z,23.75
2022-12-16T13:43:36.525Z,20.77
2022-12-16T13:46:24.597Z,22.02
2022-12-16T13:49:09.933Z,24.35
2022-12-16T13:51:58.153Z,21.47
2022-12-16T13:55:04.859Z,24.45
2022-12-16T13:57:56.067Z,22.23
2022-12-16T14:00:44.158Z,25.20
2022-12-16T14:03:38.958Z,27.53
2022-12-16T14:06:31.952Z,29.30
2022-12-16T14:09:22.628Z,31.20
2022-12-16T14:12:14.960Z,30.20
2022-12-16T14:15:34.747Z,31.70
2022-12-16T14:18:28.872Z,26.20
2022-12-16T14:21:19.579Z,28.87
2022-12-16T14:24:19.270Z,28.33
2022-12-16T14:27:04.953Z,27.70
2022-12-16T14:29:58.741Z,29.97
2022-12-16T14:32:49.407Z,30.50
2022-12-16T14:35:38.078Z,33.37
2022-12-16T14:38:47.749Z,34.00
2022-12-16T14:41:43.575Z,34.50
2022-12-16T14:44:41.235Z,30.93
2022-12-16T14:47:38.511Z,33.07
2022-12-16T14:50:55.058Z,31.93
2022-12-16T14:53:42.690Z,32.73
2022-12-16T14:56:34.694Z,36.50
2022-12-16T14:59:38.184Z,34.90
2022-12-16T15:02:44.433Z,33.37
2022-12-16T15:05:30.675Z,42.87
2022-12-16T15:08:16.602Z,34.13
2022-12-16T15:11:02.273Z,35.73
2022-12-16T15:13:48.505Z,33.30
2022-12-16T15:16:39.280Z,35.37
2022-12-16T15:19:25.246Z,36.17
2022-12-16T15:22:10.567Z,31.80
2022-12-16T15:24:57.524Z,36.40
2022-12-16T15:27:45.400Z,44.07
2022-12-16T15:30:49.990Z,49.53
2022-12-16T15:33:37.728Z,40.53
2022-12-16T15:36:24.486Z,43.70
2022-12-16T15:39:10.056Z,40.70
2022-12-16T15:41:56.989Z,44.23
2022-12-16T15:44:45.459Z,44.40
2022-12-16T15:47:57.464Z,43.07
2022-12-16T15:50:46.509Z,47.93
2022-12-16T15:53:50.001Z,60.23
2022-12-16T15:56:52.121Z,43.13
2022-12-16T15:59:45.208Z,44.17
2022-12-16T16:02:39.234Z,48.33
2022-12-16T16:05:37.250Z,45.83
2022-12-16T16:08:22.570Z,50.33
2022-12-16T16:11:08.351Z,50.40
2022-12-16T16:13:53.924Z,46.63
2022-12-16T16:16:40.435Z,56.30
2022-12-16T16:19:32.883Z,65.27
2022-12-16T16:22:18.296Z,62.03
2022-12-16T16:25:03.466Z,61.40
2022-12-16T16:27:49.055Z,54.20
2022-12-16T16:30:34.305Z,60.93
2022-12-16T16:33:19.497Z,56.40
2022-12-16T16:36:04.821Z,59.20
2022-12-16T16:39:12.828Z,56.23
2022-12-16T16:42:02.581Z,50.30
2022-12-16T16:44:47.652Z,53.83
2022-12-16T16:47:36.231Z,48.57
2022-12-16T16:50:21.578Z,50.00
2022-12-16T16:53:06.854Z,46.67
2022-12-16T16:55:52.358Z,44.70
2022-12-16T16:58:46.368Z,42.93
2022-12-16T17:01:35.347Z,45.67
2022-12-16T17:04:21.557Z,48.50
2022-12-16T17:07:07.244Z,52.10
2022-12-16T17:09:52.429Z,49.27
2022-12-16T17:12:46.003Z,47.10
2022-12-16T17:15:42.658Z,45.37
2022-12-16T17:18:29.139Z,45.97
2022-12-16T17:21:22.077Z,52.63
2022-12-16T17:24:07.460Z,48.07
2022-12-16T17:26:52.819Z,41.63
2022-12-16T17:29:40.866Z,46.53
2022-12-16T17:32:26.693Z,44.70
2022-12-16T17:35:12.116Z,48.23
2022-12-16T17:37:57.436Z,43.63
2022-12-16T17:40:42.768Z,45.67
2022-12-16T17:43:28.544Z,48.07
2022-12-16T17:46:22.551Z,47.90
2022-12-16T17:49:15.830Z,46.40
2022-12-16T17:52:01.942Z,43.43
2022-12-16T17:54:47.631Z,43.30
2022-12-16T17:57:33.239Z,46.97
2022-12-16T18:00:18.598Z,42.53
2022-12-16T18:03:04.054Z,41.20
2022-12-16T18:05:49.724Z,42.43
2022-12-16T18:08:35.512Z,38.93
2022-12-16T18:11:21.440Z,38.60
2022-12-16T18:14:06.868Z,38.77
2022-12-16T18:16:52.333Z,42.13
2022-12-16T18:19:37.909Z,41.63
2022-12-16T18:22:23.091Z,44.10
2022-12-16T18:25:08.730Z,40.37
2022-12-16T18:27:55.021Z,43.60
2022-12-16T18:30:40.852Z,40.13
2022-12-16T18:33:26.037Z,45.90
2022-12-16T18:36:14.295Z,57.80
2022-12-16T18:39:00.002Z,57.03
2022-12-16T18:41:53.787Z,48.70
2022-12-16T18:44:41.182Z,55.97
2022-12-16T18:47:26.582Z,53.43
2022-12-16T18:50:12.088Z,42.33
2022-12-16T18:52:57.470Z,45.33
2022-12-16T18:55:42.999Z,47.43
2022-12-16T18:58:50.236Z,46.23
2022-12-16T19:01:33.621Z,47.17
2022-12-16T19:04:18.765Z,45.20
2022-12-16T19:07:04.148Z,46.77
2022-12-16T19:09:49.770Z,45.73
2022-12-16T19:12:35.119Z,47.93
2022-12-16T19:15:20.566Z,46.43
2022-12-16T19:18:06.124Z,47.60
2022-12-16T19:20:51.589Z,47.67
2022-12-16T19:23:47.692Z,46.23
2022-12-16T19:26:33.023Z,52.03
2022-12-16T19:29:18.401Z,54.17
2022-12-16T19:32:04.011Z,50.63
2022-12-16T19:34:49.456Z,53.30
2022-12-16T19:37:35.054Z,49.87
2022-12-16T19:40:20.362Z,50.90
2022-12-16T19:43:05.747Z,49.87
2022-12-16T19:45:51.031Z,49.57
2022-12-16T19:48:37.225Z,45.80
2022-12-16T19:51:22.695Z,45.73
2022-12-16T19:54:08.106Z,42.83
2022-12-16T19:56:55.259Z,45.77
2022-12-16T19:59:41.110Z,42.17
2022-12-16T20:02:30.164Z,41.93
2022-12-16T20:05:16.521Z,43.80
2022-12-16T20:08:02.035Z,42.67
2022-12-16T20:10:47.404Z,40.97
2022-12-16T20:13:32.793Z,43.23
2022-12-16T20:16:22.334Z,42.37
2022-12-16T20:19:07.716Z,44.27
2022-12-16T20:21:56.282Z,46.13
2022-12-16T20:24:42.828Z,42.97
2022-12-16T20:27:28.692Z,46.33
2022-12-16T20:30:13.952Z,39.53
2022-12-16T20:32:59.248Z,40.37
2022-12-16T20:35:44.803Z,42.90
2022-12-16T20:38:30.300Z,39.77
2022-12-16T20:41:19.765Z,42.20
2022-12-16T20:44:09.269Z,46.60
2022-12-16T20:46:56.343Z,45.80
2022-12-16T20:49:41.972Z,52.07
2022-12-16T20:52:27.371Z,44.27
2022-12-16T20:55:13.195Z,42.40
2022-12-16T20:57:58.537Z,46.23
2022-12-16T21:00:44.309Z,43.30
2022-12-16T21:03:29.428Z,41.77
2022-12-16T21:06:14.841Z,44.90
2022-12-16T21:09:16.972Z,42.07
2022-12-16T21:12:02.100Z,41.80
2022-12-16T21:14:47.706Z,39.43
2022-12-16T21:17:33.078Z,39.63
2022-12-16T21:20:18.506Z,42.77
2022-12-16T21:23:04.086Z,41.60
2022-12-16T21:25:49.470Z,38.30
2022-12-16T21:28:34.861Z,39.77
2022-12-16T21:31:20.256Z,45.80
2022-12-16T21:34:05.834Z,40.20
2022-12-16T21:36:50.959Z,38.20
2022-12-16T21:39:36.884Z,40.60
2022-12-16T21:42:22.367Z,39.80
2022-12-16T21:45:07.745Z,43.90
2022-12-16T21:47:53.263Z,41.27
2022-12-16T21:50:41.385Z,44.03
2022-12-16T21:53:26.709Z,45.60
2022-12-16T21:56:13.664Z,43.87
2022-12-16T21:59:00.749Z,40.83
2022-12-16T22:01:46.402Z,42.37
2022-12-16T22:04:31.995Z,41.63
2022-12-16T22:07:17.520Z,42.53
2022-12-16T22:10:03.027Z,44.40
2022-12-16T22:12:48.470Z,44.43
2022-12-16T22:15:33.720Z,42.37
2022-12-16T22:18:19.270Z,43.87
2022-12-16T22:21:15.379Z,44.87
2022-12-16T22:24:00.991Z,42.37
2022-12-16T22:26:46.528Z,46.53
2022-12-16T22:29:31.730Z,45.83
2022-12-16T22:32:17.480Z,52.50
2022-12-16T22:35:02.866Z,58.67
2022-12-16T22:37:49.167Z,50.43
2022-12-16T22:40:34.409Z,55.20
2022-12-16T22:43:19.836Z,86.77
2022-12-16T22:46:05.415Z,66.00
2022-12-16T22:48:50.923Z,61.60
2022-12-16T22:51:37.371Z,67.60
2022-12-16T22:54:22.801Z,54.77
2022-12-16T22:57:08.262Z,59.57
2022-12-16T22:59:53.883Z,61.47
2022-12-16T23:02:39.447Z,59.87
2022-12-16T23:05:27.729Z,57.93
2022-12-16T23:08:13.374Z,58.60
2022-12-16T23:10:58.732Z,57.83
2022-12-16T23:13:46.498Z,60.37
2022-12-16T23:16:33.262Z,63.60
2022-12-16T23:19:18.782Z,73.93
2022-12-16T23:22:04.175Z,87.13
2022-12-16T23:24:49.597Z,59.53
2022-12-16T23:27:35.110Z,81.23
2022-12-16T23:30:20.876Z,61.53
2022-12-16T23:33:06.189Z,58.73
2022-12-16T23:35:51.332Z,62.00
2022-12-16T23:38:37.177Z,68.57
2022-12-16T23:41:22.648Z,72.10
2022-12-16T23:44:08.053Z,59.93
2022-12-16T23:46:53.701Z,58.37
2022-12-16T23:49:39.250Z,57.60
2022-12-16T23:52:24.632Z,65.30
2022-12-16T23:55:10.121Z,57.23
2022-12-16T23:57:56.172Z,61.70
